sensor_id;sensor_type;location;lat;lon;timestamp;P1;durP1;ratioP1;P2;durP2;ratioP2
20170;SDS011;10245;51.344;6.620;2023-11-21T00:02:18;15.43;;;9.82;;
20170;SDS011;10245;51.344;6.620;2023-11-21T00:04:43;14.57;;;9.07;;
20170;SDS011;10245;51.344;6.620;2023-11-21T00:07:07;16.00;;;9.95;;
20170;SDS011;10245;51.344;6.620;2023-11-21T00:09:30;11.93;;;8.60;;
20170;SDS011;10245;51.344;6.620;2023-11-21T00:11:53;18.08;;;9.98;;
20170;SDS011;10245;51.344;6.620;2023-11-21T00:14:16;19.75;;;12.43;;
20170;SDS011;10245;51.344;6.620;2023-11-21T00:16:40;14.60;;;9.95;;
20170;SDS011;10245;51.344;6.620;2023-11-21T00:19:03;19.00;;;11.60;;
20170;SDS011;10245;51.344;6.620;2023-11-21T00:21:28;20.13;;;11.60;;
20170;SDS011;10245;51.344;6.620;2023-11-21T00:23:51;21.75;;;11.65;;
20170;SDS011;10245;51.344;6.620;2023-11-21T00:26:15;16.67;;;10.82;;
20170;SDS011;10245;51.344;6.620;2023-11-21T00:28:44;17.15;;;11.00;;
20170;SDS011;10245;51.344;6.620;2023-11-21T00:31:07;19.25;;;10.88;;
20170;SDS011;10245;51.344;6.620;2023-11-21T00:33:31;16.55;;;11.40;;
20170;SDS011;10245;51.344;6.620;2023-11-21T00:35:55;20.00;;;11.30;;
20170;SDS011;10245;51.344;6.620;2023-11-21T00:38:19;25.00;;;13.95;;
20170;SDS011;10245;51.344;6.620;2023-11-21T00:40:43;23.60;;;13.32;;
20170;SDS011;10245;51.344;6.620;2023-11-21T00:43:06;17.88;;;12.55;;
20170;SDS011;10245;51.344;6.620;2023-11-21T00:45:29;18.88;;;12.90;;
20170;SDS011;10245;51.344;6.620;2023-11-21T00:47:52;19.48;;;12.07;;
20170;SDS011;10245;51.344;6.620;2023-11-21T00:50:16;22.98;;;13.95;;
20170;SDS011;10245;51.344;6.620;2023-11-21T00:52:39;20.17;;;13.13;;
20170;SDS011;10245;51.344;6.620;2023-11-21T00:55:04;22.45;;;12.35;;
20170;SDS011;10245;51.344;6.620;2023-11-21T00:57:29;19.25;;;11.98;;
20170;SDS011;10245;51.344;6.620;2023-11-21T00:59:52;21.05;;;12.57;;
20170;SDS011;10245;51.344;6.620;2023-11-21T01:02:16;20.92;;;12.60;;
20170;SDS011;10245;51.344;6.620;2023-11-21T01:04:39;19.02;;;12.23;;
20170;SDS011;10245;51.344;6.620;2023-11-21T01:07:03;24.33;;;13.23;;
20170;SDS011;10245;51.344;6.620;2023-11-21T01:09:27;27.77;;;15.77;;
20170;SDS011;10245;51.344;6.620;2023-11-21T01:11:52;26.60;;;15.48;;
20170;SDS011;10245;51.344;6.620;2023-11-21T01:14:16;22.63;;;13.57;;
20170;SDS011;10245;51.344;6.620;2023-11-21T01:16:39;27.77;;;15.25;;
20170;SDS011;10245;51.344;6.620;2023-11-21T01:19:02;25.58;;;14.00;;
20170;SDS011;10245;51.344;6.620;2023-11-21T01:21:26;21.10;;;13.90;;
20170;SDS011;10245;51.344;6.620;2023-11-21T01:23:51;21.52;;;13.55;;
20170;SDS011;10245;51.344;6.620;2023-11-21T01:26:14;22.55;;;14.40;;
20170;SDS011;10245;51.344;6.620;2023-11-21T01:28:38;20.08;;;13.55;;
20170;SDS011;10245;51.344;6.620;2023-11-21T01:31:03;29.95;;;16.55;;
20170;SDS011;10245;51.344;6.620;2023-11-21T01:33:28;30.05;;;17.52;;
20170;SDS011;10245;51.344;6.620;2023-11-21T01:35:52;26.80;;;14.48;;
20170;SDS011;10245;51.344;6.620;2023-11-21T01:38:16;27.85;;;15.93;;
20170;SDS011;10245;51.344;6.620;2023-11-21T01:40:39;20.27;;;14.57;;
20170;SDS011;10245;51.344;6.620;2023-11-21T01:43:02;24.73;;;15.57;;
20170;SDS011;10245;51.344;6.620;2023-11-21T01:45:27;25.98;;;15.82;;
20170;SDS011;10245;51.344;6.620;2023-11-21T01:47:53;30.30;;;16.77;;
20170;SDS011;10245;51.344;6.620;2023-11-21T01:50:18;24.95;;;15.15;;
20170;SDS011;10245;51.344;6.620;2023-11-21T01:52:44;21.83;;;14.68;;
20170;SDS011;10245;51.344;6.620;2023-11-21T01:55:10;24.85;;;16.05;;
20170;SDS011;10245;51.344;6.620;2023-11-21T01:57:47;27.02;;;16.25;;
20170;SDS011;10245;51.344;6.620;2023-11-21T02:00:12;29.67;;;16.77;;
20170;SDS011;10245;51.344;6.620;2023-11-21T02:02:39;22.42;;;15.40;;
20170;SDS011;10245;51.344;6.620;2023-11-21T02:05:02;25.67;;;15.75;;
20170;SDS011;10245;51.344;6.620;2023-11-21T02:07:26;25.83;;;17.27;;
20170;SDS011;10245;51.344;6.620;2023-11-21T02:09:50;28.08;;;16.83;;
20170;SDS011;10245;51.344;6.620;2023-11-21T02:12:13;35.10;;;19.67;;
20170;SDS011;10245;51.344;6.620;2023-11-21T02:14:37;24.48;;;16.15;;
20170;SDS011;10245;51.344;6.620;2023-11-21T02:17:00;29.15;;;18.35;;
20170;SDS011;10245;51.344;6.620;2023-11-21T02:19:26;30.52;;;16.75;;
20170;SDS011;10245;51.344;6.620;2023-11-21T02:21:52;25.27;;;16.20;;
20170;SDS011;10245;51.344;6.620;2023-11-21T02:24:17;25.38;;;16.00;;
20170;SDS011;10245;51.344;6.620;2023-11-21T02:26:41;25.75;;;16.10;;
20170;SDS011;10245;51.344;6.620;2023-11-21T02:29:05;29.90;;;17.17;;
20170;SDS011;10245;51.344;6.620;2023-11-21T02:31:32;31.80;;;17.88;;
20170;SDS011;10245;51.344;6.620;2023-11-21T02:33:55;33.33;;;18.35;;
20170;SDS011;10245;51.344;6.620;2023-11-21T02:36:18;41.63;;;20.52;;
20170;SDS011;10245;51.344;6.620;2023-11-21T02:38:43;34.60;;;20.35;;
20170;SDS011;10245;51.344;6.620;2023-11-21T02:41:08;36.22;;;20.48;;
20170;SDS011;10245;51.344;6.620;2023-11-21T02:43:31;40.13;;;21.40;;
20170;SDS011;10245;51.344;6.620;2023-11-21T02:45:55;30.60;;;19.58;;
20170;SDS011;10245;51.344;6.620;2023-11-21T02:48:18;40.70;;;21.05;;
20170;SDS011;10245;51.344;6.620;2023-11-21T02:50:42;32.65;;;19.15;;
20170;SDS011;10245;51.344;6.620;2023-11-21T02:53:05;35.58;;;19.65;;
20170;SDS011;10245;51.344;6.620;2023-11-21T02:55:28;31.83;;;18.23;;
20170;SDS011;10245;51.344;6.620;2023-11-21T02:57:53;34.72;;;19.38;;
20170;SDS011;10245;51.344;6.620;2023-11-21T03:00:18;28.92;;;17.10;;
20170;SDS011;10245;51.344;6.620;2023-11-21T03:02:46;31.88;;;18.48;;
20170;SDS011;10245;51.344;6.620;2023-11-21T03:05:09;27.80;;;16.27;;
20170;SDS011;10245;51.344;6.620;2023-11-21T03:07:33;30.00;;;18.42;;
20170;SDS011;10245;51.344;6.620;2023-11-21T03:09:56;28.90;;;17.90;;
20170;SDS011;10245;51.344;6.620;2023-11-21T03:12:20;33.75;;;17.95;;
20170;SDS011;10245;51.344;6.620;2023-11-21T03:14:44;38.97;;;19.98;;
20170;SDS011;10245;51.344;6.620;2023-11-21T03:17:09;33.60;;;19.80;;
20170;SDS011;10245;51.344;6.620;2023-11-21T03:19:32;32.72;;;19.23;;
20170;SDS011;10245;51.344;6.620;2023-11-21T03:21:56;39.25;;;21.25;;
20170;SDS011;10245;51.344;6.620;2023-11-21T03:24:20;41.78;;;19.50;;
20170;SDS011;10245;51.344;6.620;2023-11-21T03:26:44;40.08;;;21.40;;
20170;SDS011;10245;51.344;6.620;2023-11-21T03:29:07;36.42;;;20.02;;
20170;SDS011;10245;51.344;6.620;2023-11-21T03:31:32;36.95;;;20.45;;
20170;SDS011;10245;51.344;6.620;2023-11-21T03:33:56;40.60;;;21.38;;
20170;SDS011;10245;51.344;6.620;2023-11-21T03:36:19;43.05;;;22.02;;
20170;SDS011;10245;51.344;6.620;2023-11-21T03:38:42;43.22;;;22.08;;
20170;SDS011;10245;51.344;6.620;2023-11-21T03:41:06;46.10;;;22.58;;
20170;SDS011;10245;51.344;6.620;2023-11-21T03:43:31;43.67;;;22.27;;
20170;SDS011;10245;51.344;6.620;2023-11-21T03:45:54;49.88;;;24.17;;
20170;SDS011;10245;51.344;6.620;2023-11-21T03:48:19;47.17;;;24.13;;
20170;SDS011;10245;51.344;6.620;2023-11-21T03:50:42;38.55;;;20.77;;
20170;SDS011;10245;51.344;6.620;2023-11-21T03:53:05;44.28;;;22.92;;
20170;SDS011;10245;51.344;6.620;2023-11-21T03:55:29;41.85;;;22.38;;
20170;SDS011;10245;51.344;6.620;2023-11-21T03:57:52;41.00;;;22.90;;
20170;SDS011;10245;51.344;6.620;2023-11-21T04:00:16;46.85;;;24.17;;
20170;SDS011;10245;51.344;6.620;2023-11-21T04:02:41;46.40;;;24.00;;
20170;SDS011;10245;51.344;6.620;2023-11-21T04:05:06;42.72;;;22.05;;
20170;SDS011;10245;51.344;6.620;2023-11-21T04:07:30;37.03;;;20.60;;
20170;SDS011;10245;51.344;6.620;2023-11-21T04:09:53;41.08;;;21.17;;
20170;SDS011;10245;51.344;6.620;2023-11-21T04:12:16;33.97;;;20.08;;
20170;SDS011;10245;51.344;6.620;2023-11-21T04:14:40;44.50;;;23.55;;
20170;SDS011;10245;51.344;6.620;2023-11-21T04:17:04;45.90;;;22.67;;
20170;SDS011;10245;51.344;6.620;2023-11-21T04:19:27;37.08;;;21.48;;
20170;SDS011;10245;51.344;6.620;2023-11-21T04:21:53;42.72;;;22.58;;
20170;SDS011;10245;51.344;6.620;2023-11-21T04:24:16;38.60;;;21.58;;
20170;SDS011;10245;51.344;6.620;2023-11-21T04:26:40;38.35;;;20.88;;
20170;SDS011;10245;51.344;6.620;2023-11-21T04:29:03;40.83;;;22.05;;
20170;SDS011;10245;51.344;6.620;2023-11-21T04:31:26;37.58;;;20.88;;
20170;SDS011;10245;51.344;6.620;2023-11-21T04:33:50;40.85;;;21.73;;
20170;SDS011;10245;51.344;6.620;2023-11-21T04:36:13;38.30;;;20.20;;
20170;SDS011;10245;51.344;6.620;2023-11-21T04:38:39;34.33;;;19.30;;
20170;SDS011;10245;51.344;6.620;2023-11-21T04:41:04;34.25;;;19.58;;
20170;SDS011;10245;51.344;6.620;2023-11-21T04:43:28;33.33;;;19.63;;
20170;SDS011;10245;51.344;6.620;2023-11-21T04:45:51;39.85;;;22.20;;
20170;SDS011;10245;51.344;6.620;2023-11-21T04:48:14;29.58;;;18.42;;
20170;SDS011;10245;51.344;6.620;2023-11-21T04:50:38;41.08;;;19.55;;
20170;SDS011;10245;51.344;6.620;2023-11-21T04:53:01;33.10;;;19.63;;
20170;SDS011;10245;51.344;6.620;2023-11-21T04:55:26;29.15;;;18.77;;
20170;SDS011;10245;51.344;6.620;2023-11-21T04:57:50;33.88;;;19.45;;
20170;SDS011;10245;51.344;6.620;2023-11-21T05:00:13;36.72;;;21.00;;
20170;SDS011;10245;51.344;6.620;2023-11-21T05:02:37;36.20;;;20.55;;
20170;SDS011;10245;51.344;6.620;2023-11-21T05:05:03;36.70;;;21.00;;
20170;SDS011;10245;51.344;6.620;2023-11-21T05:07:29;36.72;;;20.23;;
20170;SDS011;10245;51.344;6.620;2023-11-21T05:09:53;40.83;;;21.08;;
20170;SDS011;10245;51.344;6.620;2023-11-21T05:12:18;42.45;;;22.30;;
20170;SDS011;10245;51.344;6.620;2023-11-21T05:14:41;48.90;;;23.67;;
20170;SDS011;10245;51.344;6.620;2023-11-21T05:17:05;50.92;;;24.58;;
20170;SDS011;10245;51.344;6.620;2023-11-21T05:19:29;46.97;;;24.17;;
20170;SDS011;10245;51.344;6.620;2023-11-21T05:21:52;42.72;;;23.13;;
20170;SDS011;10245;51.344;6.620;2023-11-21T05:24:16;57.08;;;25.77;;
20170;SDS011;10245;51.344;6.620;2023-11-21T05:26:39;52.90;;;27.42;;
20170;SDS011;10245;51.344;6.620;2023-11-21T05:29:04;53.38;;;26.17;;
20170;SDS011;10245;51.344;6.620;2023-11-21T05:31:28;53.47;;;26.88;;
20170;SDS011;10245;51.344;6.620;2023-11-21T05:33:51;66.43;;;28.73;;
20170;SDS011;10245;51.344;6.620;2023-11-21T05:36:14;64.78;;;30.60;;
20170;SDS011;10245;51.344;6.620;2023-11-21T05:38:37;72.50;;;30.83;;
20170;SDS011;10245;51.344;6.620;2023-11-21T05:41:01;66.72;;;29.77;;
20170;SDS011;10245;51.344;6.620;2023-11-21T05:43:25;79.45;;;33.28;;
20170;SDS011;10245;51.344;6.620;2023-11-21T05:45:50;72.15;;;31.65;;
20170;SDS011;10245;51.344;6.620;2023-11-21T05:48:13;84.82;;;34.53;;
20170;SDS011;10245;51.344;6.620;2023-11-21T05:50:37;96.32;;;36.20;;
20170;SDS011;10245;51.344;6.620;2023-11-21T05:53:00;74.35;;;34.22;;
20170;SDS011;10245;51.344;6.620;2023-11-21T05:55:24;92.22;;;36.95;;
20170;SDS011;10245;51.344;6.620;2023-11-21T05:57:48;77.65;;;33.70;;
20170;SDS011;10245;51.344;6.620;2023-11-21T06:00:12;90.68;;;36.08;;
20170;SDS011;10245;51.344;6.620;2023-11-21T06:02:42;87.65;;;35.75;;
20170;SDS011;10245;51.344;6.620;2023-11-21T06:05:07;68.40;;;30.63;;
20170;SDS011;10245;51.344;6.620;2023-11-21T06:07:31;90.10;;;33.65;;
20170;SDS011;10245;51.344;6.620;2023-11-21T06:09:55;83.22;;;33.92;;
20170;SDS011;10245;51.344;6.620;2023-11-21T06:12:19;101.60;;;33.72;;
20170;SDS011;10245;51.344;6.620;2023-11-21T06:14:42;71.90;;;29.85;;
20170;SDS011;10245;51.344;6.620;2023-11-21T06:17:06;60.33;;;28.33;;
20170;SDS011;10245;51.344;6.620;2023-11-21T06:19:32;77.38;;;31.30;;
20170;SDS011;10245;51.344;6.620;2023-11-21T06:21:55;72.47;;;30.55;;
20170;SDS011;10245;51.344;6.620;2023-11-21T06:24:18;76.40;;;31.48;;
20170;SDS011;10245;51.344;6.620;2023-11-21T06:26:42;79.65;;;31.83;;
20170;SDS011;10245;51.344;6.620;2023-11-21T06:29:06;80.53;;;33.10;;
20170;SDS011;10245;51.344;6.620;2023-11-21T06:31:29;63.10;;;28.55;;
20170;SDS011;10245;51.344;6.620;2023-11-21T06:33:54;78.40;;;31.42;;
20170;SDS011;10245;51.344;6.620;2023-11-21T06:36:18;92.75;;;32.72;;
20170;SDS011;10245;51.344;6.620;2023-11-21T06:38:42;87.47;;;31.70;;
20170;SDS011;10245;51.344;6.620;2023-11-21T06:41:07;73.28;;;31.75;;
20170;SDS011;10245;51.344;6.620;2023-11-21T06:43:30;73.53;;;31.63;;
20170;SDS011;10245;51.344;6.620;2023-11-21T06:45:53;82.60;;;33.45;;
20170;SDS011;10245;51.344;6.620;2023-11-21T06:48:15;93.63;;;38.85;;
20170;SDS011;10245;51.344;6.620;2023-11-21T06:50:39;81.15;;;34.70;;
20170;SDS011;10245;51.344;6.620;2023-11-21T06:53:04;83.15;;;33.90;;
20170;SDS011;10245;51.344;6.620;2023-11-21T06:55:28;69.97;;;31.00;;
20170;SDS011;10245;51.344;6.620;2023-11-21T06:57:53;78.90;;;32.95;;
20170;SDS011;10245;51.344;6.620;2023-11-21T07:00:16;99.40;;;34.47;;
20170;SDS011;10245;51.344;6.620;2023-11-21T07:02:40;114.22;;;37.55;;
20170;SDS011;10245;51.344;6.620;2023-11-21T07:05:04;96.95;;;36.88;;
20170;SDS011;10245;51.344;6.620;2023-11-21T07:07:28;96.47;;;36.30;;
20170;SDS011;10245;51.344;6.620;2023-11-21T07:09:53;92.22;;;36.22;;
20170;SDS011;10245;51.344;6.620;2023-11-21T07:12:16;94.30;;;36.95;;
20170;SDS011;10245;51.344;6.620;2023-11-21T07:14:39;94.93;;;36.10;;
20170;SDS011;10245;51.344;6.620;2023-11-21T07:17:06;98.50;;;35.85;;
20170;SDS011;10245;51.344;6.620;2023-11-21T07:19:29;68.88;;;31.60;;
20170;SDS011;10245;51.344;6.620;2023-11-21T07:21:52;82.82;;;33.90;;
20170;SDS011;10245;51.344;6.620;2023-11-21T07:24:16;67.78;;;29.85;;
20170;SDS011;10245;51.344;6.620;2023-11-21T07:26:41;71.35;;;30.17;;
20170;SDS011;10245;51.344;6.620;2023-11-21T07:29:05;93.35;;;34.50;;
20170;SDS011;10245;51.344;6.620;2023-11-21T07:31:29;76.15;;;33.17;;
20170;SDS011;10245;51.344;6.620;2023-11-21T07:33:52;98.30;;;35.95;;
20170;SDS011;10245;51.344;6.620;2023-11-21T07:36:16;95.95;;;37.30;;
20170;SDS011;10245;51.344;6.620;2023-11-21T07:38:40;100.22;;;36.80;;
20170;SDS011;10245;51.344;6.620;2023-11-21T07:41:05;116.40;;;40.38;;
20170;SDS011;10245;51.344;6.620;2023-11-21T07:43:44;108.60;;;37.92;;
20170;SDS011;10245;51.344;6.620;2023-11-21T07:46:10;98.75;;;38.28;;
20170;SDS011;10245;51.344;6.620;2023-11-21T07:48:35;94.55;;;37.55;;
20170;SDS011;10245;51.344;6.620;2023-11-21T07:51:00;76.90;;;34.42;;
20170;SDS011;10245;51.344;6.620;2023-11-21T07:53:25;87.05;;;35.72;;
20170;SDS011;10245;51.344;6.620;2023-11-21T07:55:50;105.32;;;39.17;;
20170;SDS011;10245;51.344;6.620;2023-11-21T07:58:13;83.65;;;36.17;;
20170;SDS011;10245;51.344;6.620;2023-11-21T08:00:38;79.28;;;35.30;;
20170;SDS011;10245;51.344;6.620;2023-11-21T08:03:02;80.22;;;35.28;;
20170;SDS011;10245;51.344;6.620;2023-11-21T08:05:25;107.90;;;41.58;;
20170;SDS011;10245;51.344;6.620;2023-11-21T08:07:57;98.00;;;38.53;;
20170;SDS011;10245;51.344;6.620;2023-11-21T08:10:21;91.63;;;40.10;;
20170;SDS011;10245;51.344;6.620;2023-11-21T08:12:44;94.22;;;38.63;;
20170;SDS011;10245;51.344;6.620;2023-11-21T08:15:09;82.50;;;37.92;;
20170;SDS011;10245;51.344;6.620;2023-11-21T08:17:34;82.35;;;36.30;;
20170;SDS011;10245;51.344;6.620;2023-11-21T08:19:58;85.93;;;37.33;;
20170;SDS011;10245;51.344;6.620;2023-11-21T08:22:21;89.15;;;38.33;;
20170;SDS011;10245;51.344;6.620;2023-11-21T08:24:44;84.95;;;38.15;;
20170;SDS011;10245;51.344;6.620;2023-11-21T08:27:08;81.90;;;38.42;;
20170;SDS011;10245;51.344;6.620;2023-11-21T08:29:31;81.60;;;37.65;;
20170;SDS011;10245;51.344;6.620;2023-11-21T08:31:55;93.65;;;39.30;;
20170;SDS011;10245;51.344;6.620;2023-11-21T08:34:20;81.32;;;36.83;;
20170;SDS011;10245;51.344;6.620;2023-11-21T08:36:43;80.57;;;36.53;;
20170;SDS011;10245;51.344;6.620;2023-11-21T08:39:07;80.47;;;36.90;;
20170;SDS011;10245;51.344;6.620;2023-11-21T08:41:30;77.95;;;37.17;;
20170;SDS011;10245;51.344;6.620;2023-11-21T08:43:53;87.90;;;40.65;;
20170;SDS011;10245;51.344;6.620;2023-11-21T08:46:17;77.25;;;37.67;;
20170;SDS011;10245;51.344;6.620;2023-11-21T08:48:42;91.93;;;40.65;;
20170;SDS011;10245;51.344;6.620;2023-11-21T08:51:09;90.78;;;39.03;;
20170;SDS011;10245;51.344;6.620;2023-11-21T08:53:33;84.82;;;38.88;;
20170;SDS011;10245;51.344;6.620;2023-11-21T08:55:57;90.75;;;40.78;;
20170;SDS011;10245;51.344;6.620;2023-11-21T08:58:20;100.80;;;41.17;;
20170;SDS011;10245;51.344;6.620;2023-11-21T09:00:43;91.05;;;40.50;;
20170;SDS011;10245;51.344;6.620;2023-11-21T09:03:07;79.50;;;36.72;;
20170;SDS011;10245;51.344;6.620;2023-11-21T09:05:30;76.97;;;35.55;;
20170;SDS011;10245;51.344;6.620;2023-11-21T09:07:55;74.13;;;34.42;;
20170;SDS011;10245;51.344;6.620;2023-11-21T09:10:19;63.83;;;33.42;;
20170;SDS011;10245;51.344;6.620;2023-11-21T09:12:42;72.78;;;33.67;;
20170;SDS011;10245;51.344;6.620;2023-11-21T09:15:06;69.93;;;33.38;;
20170;SDS011;10245;51.344;6.620;2023-11-21T09:17:33;75.93;;;35.05;;
20170;SDS011;10245;51.344;6.620;2023-11-21T09:19:56;64.50;;;33.85;;
20170;SDS011;10245;51.344;6.620;2023-11-21T09:22:20;64.47;;;32.28;;
20170;SDS011;10245;51.344;6.620;2023-11-21T09:24:44;63.65;;;31.83;;
20170;SDS011;10245;51.344;6.620;2023-11-21T09:27:08;72.88;;;35.30;;
20170;SDS011;10245;51.344;6.620;2023-11-21T09:29:32;69.20;;;32.42;;
20170;SDS011;10245;51.344;6.620;2023-11-21T09:31:55;62.35;;;32.00;;
20170;SDS011;10245;51.344;6.620;2023-11-21T09:34:20;64.03;;;32.90;;
20170;SDS011;10245;51.344;6.620;2023-11-21T09:36:44;70.72;;;35.22;;
20170;SDS011;10245;51.344;6.620;2023-11-21T09:39:08;73.18;;;33.92;;
20170;SDS011;10245;51.344;6.620;2023-11-21T09:41:36;64.07;;;34.03;;
20170;SDS011;10245;51.344;6.620;2023-11-21T09:44:07;72.05;;;33.97;;
20170;SDS011;10245;51.344;6.620;2023-11-21T09:46:36;68.18;;;32.65;;
20170;SDS011;10245;51.344;6.620;2023-11-21T09:49:01;68.97;;;33.08;;
20170;SDS011;10245;51.344;6.620;2023-11-21T09:51:30;63.65;;;31.35;;
20170;SDS011;10245;51.344;6.620;2023-11-21T09:54:00;61.83;;;32.63;;
20170;SDS011;10245;51.344;6.620;2023-11-21T09:56:27;59.13;;;29.52;;
20170;SDS011;10245;51.344;6.620;2023-11-21T09:58:53;61.30;;;30.15;;
20170;SDS011;10245;51.344;6.620;2023-11-21T10:01:18;65.57;;;30.63;;
20170;SDS011;10245;51.344;6.620;2023-11-21T10:03:44;63.95;;;29.85;;
20170;SDS011;10245;51.344;6.620;2023-11-21T10:06:08;54.97;;;27.10;;
20170;SDS011;10245;51.344;6.620;2023-11-21T10:08:35;51.22;;;26.38;;
20170;SDS011;10245;51.344;6.620;2023-11-21T10:11:13;56.40;;;27.92;;
20170;SDS011;10245;51.344;6.620;2023-11-21T10:13:38;52.55;;;27.15;;
20170;SDS011;10245;51.344;6.620;2023-11-21T10:16:04;61.55;;;28.75;;
20170;SDS011;10245;51.344;6.620;2023-11-21T10:18:30;56.85;;;27.90;;
20170;SDS011;10245;51.344;6.620;2023-11-21T10:20:55;52.67;;;26.70;;
20170;SDS011;10245;51.344;6.620;2023-11-21T10:23:20;52.60;;;28.00;;
20170;SDS011;10245;51.344;6.620;2023-11-21T10:25:45;57.50;;;27.13;;
20170;SDS011;10245;51.344;6.620;2023-11-21T10:28:09;53.13;;;27.65;;
20170;SDS011;10245;51.344;6.620;2023-11-21T10:30:32;59.90;;;29.88;;
20170;SDS011;10245;51.344;6.620;2023-11-21T10:33:00;60.95;;;28.98;;
20170;SDS011;10245;51.344;6.620;2023-11-21T10:35:24;56.97;;;28.65;;
20170;SDS011;10245;51.344;6.620;2023-11-21T10:37:47;58.92;;;29.73;;
20170;SDS011;10245;51.344;6.620;2023-11-21T10:40:23;60.58;;;30.27;;
20170;SDS011;10245;51.344;6.620;2023-11-21T10:42:50;61.05;;;29.42;;
20170;SDS011;10245;51.344;6.620;2023-11-21T10:45:14;56.70;;;29.15;;
20170;SDS011;10245;51.344;6.620;2023-11-21T10:47:38;65.03;;;27.92;;
20170;SDS011;10245;51.344;6.620;2023-11-21T10:50:03;55.92;;;28.15;;
20170;SDS011;10245;51.344;6.620;2023-11-21T10:52:30;51.47;;;26.83;;
20170;SDS011;10245;51.344;6.620;2023-11-21T10:54:54;46.30;;;25.88;;
20170;SDS011;10245;51.344;6.620;2023-11-21T10:57:20;50.10;;;24.85;;
20170;SDS011;10245;51.344;6.620;2023-11-21T10:59:46;43.85;;;24.05;;
20170;SDS011;10245;51.344;6.620;2023-11-21T11:02:13;51.47;;;24.98;;
20170;SDS011;10245;51.344;6.620;2023-11-21T11:04:48;45.72;;;25.13;;
20170;SDS011;10245;51.344;6.620;2023-11-21T11:07:13;49.38;;;24.98;;
20170;SDS011;10245;51.344;6.620;2023-11-21T11:09:38;51.80;;;26.02;;
20170;SDS011;10245;51.344;6.620;2023-11-21T11:12:02;50.13;;;25.80;;
20170;SDS011;10245;51.344;6.620;2023-11-21T11:14:27;53.15;;;27.23;;
20170;SDS011;10245;51.344;6.620;2023-11-21T11:16:53;55.83;;;27.13;;
20170;SDS011;10245;51.344;6.620;2023-11-21T11:19:18;53.75;;;27.08;;
20170;SDS011;10245;51.344;6.620;2023-11-21T11:21:44;44.10;;;24.90;;
20170;SDS011;10245;51.344;6.620;2023-11-21T11:24:24;53.95;;;25.05;;
20170;SDS011;10245;51.344;6.620;2023-11-21T11:27:18;58.63;;;27.75;;
20170;SDS011;10245;51.344;6.620;2023-11-21T11:29:54;46.10;;;25.83;;
20170;SDS011;10245;51.344;6.620;2023-11-21T11:32:37;51.35;;;26.77;;
20170;SDS011;10245;51.344;6.620;2023-11-21T11:35:10;54.88;;;27.77;;
20170;SDS011;10245;51.344;6.620;2023-11-21T11:37:40;60.05;;;26.95;;
20170;SDS011;10245;51.344;6.620;2023-11-21T11:40:07;50.90;;;25.48;;
20170;SDS011;10245;51.344;6.620;2023-11-21T11:42:33;47.75;;;25.13;;
20170;SDS011;10245;51.344;6.620;2023-11-21T11:44:57;46.08;;;24.38;;
20170;SDS011;10245;51.344;6.620;2023-11-21T11:47:21;42.10;;;23.55;;
20170;SDS011;10245;51.344;6.620;2023-11-21T11:49:56;43.75;;;24.75;;
20170;SDS011;10245;51.344;6.620;2023-11-21T11:52:32;47.75;;;24.08;;
20170;SDS011;10245;51.344;6.620;2023-11-21T11:55:03;48.88;;;22.95;;
20170;SDS011;10245;51.344;6.620;2023-11-21T11:57:30;51.90;;;23.95;;
20170;SDS011;10245;51.344;6.620;2023-11-21T12:00:14;47.10;;;24.10;;
20170;SDS011;10245;51.344;6.620;2023-11-21T12:02:40;49.28;;;25.13;;
20170;SDS011;10245;51.344;6.620;2023-11-21T12:05:08;40.22;;;21.80;;
20170;SDS011;10245;51.344;6.620;2023-11-21T12:07:39;37.60;;;19.58;;
20170;SDS011;10245;51.344;6.620;2023-11-21T12:10:07;38.58;;;21.08;;
20170;SDS011;10245;51.344;6.620;2023-11-21T12:12:34;37.45;;;21.02;;
20170;SDS011;10245;51.344;6.620;2023-11-21T12:14:57;37.50;;;20.77;;
20170;SDS011;10245;51.344;6.620;2023-11-21T12:17:20;37.80;;;21.27;;
20170;SDS011;10245;51.344;6.620;2023-11-21T12:19:45;35.95;;;21.45;;
20170;SDS011;10245;51.344;6.620;2023-11-21T12:22:08;36.40;;;21.60;;
20170;SDS011;10245;51.344;6.620;2023-11-21T12:24:31;46.38;;;24.90;;
20170;SDS011;10245;51.344;6.620;2023-11-21T12:26:55;48.00;;;25.05;;
20170;SDS011;10245;51.344;6.620;2023-11-21T12:29:19;50.60;;;25.95;;
20170;SDS011;10245;51.344;6.620;2023-11-21T12:31:43;50.35;;;26.75;;
20170;SDS011;10245;51.344;6.620;2023-11-21T12:34:07;48.00;;;27.55;;
20170;SDS011;10245;51.344;6.620;2023-11-21T12:36:32;48.97;;;26.40;;
20170;SDS011;10245;51.344;6.620;2023-11-21T12:38:57;57.38;;;28.35;;
20170;SDS011;10245;51.344;6.620;2023-11-21T12:41:21;51.35;;;27.90;;
20170;SDS011;10245;51.344;6.620;2023-11-21T12:43:46;53.88;;;27.13;;
20170;SDS011;10245;51.344;6.620;2023-11-21T12:46:11;48.20;;;26.58;;
20170;SDS011;10245;51.344;6.620;2023-11-21T12:48:36;49.10;;;25.98;;
20170;SDS011;10245;51.344;6.620;2023-11-21T12:51:01;48.40;;;27.13;;
20170;SDS011;10245;51.344;6.620;2023-11-21T12:53:24;50.45;;;25.70;;
20170;SDS011;10245;51.344;6.620;2023-11-21T12:55:55;48.90;;;27.00;;
20170;SDS011;10245;51.344;6.620;2023-11-21T12:58:20;50.25;;;26.05;;
20170;SDS011;10245;51.344;6.620;2023-11-21T13:00:45;50.47;;;26.35;;
20170;SDS011;10245;51.344;6.620;2023-11-21T13:03:13;46.05;;;24.42;;
20170;SDS011;10245;51.344;6.620;2023-11-21T13:05:39;50.45;;;26.75;;
20170;SDS011;10245;51.344;6.620;2023-11-21T13:08:09;54.78;;;27.08;;
20170;SDS011;10245;51.344;6.620;2023-11-21T13:10:34;50.20;;;27.13;;
20170;SDS011;10245;51.344;6.620;2023-11-21T13:13:00;51.90;;;28.30;;
20170;SDS011;10245;51.344;6.620;2023-11-21T13:15:27;49.53;;;28.52;;
20170;SDS011;10245;51.344;6.620;2023-11-21T13:17:52;47.80;;;27.80;;
20170;SDS011;10245;51.344;6.620;2023-11-21T13:20:18;49.00;;;26.60;;
20170;SDS011;10245;51.344;6.620;2023-11-21T13:22:45;47.30;;;26.73;;
20170;SDS011;10245;51.344;6.620;2023-11-21T13:25:13;53.28;;;29.08;;
20170;SDS011;10245;51.344;6.620;2023-11-21T13:27:39;44.65;;;26.05;;
20170;SDS011;10245;51.344;6.620;2023-11-21T13:30:04;51.42;;;26.30;;
20170;SDS011;10245;51.344;6.620;2023-11-21T13:32:32;54.25;;;26.45;;
20170;SDS011;10245;51.344;6.620;2023-11-21T13:34:55;54.25;;;27.27;;
20170;SDS011;10245;51.344;6.620;2023-11-21T13:37:22;48.45;;;25.33;;
20170;SDS011;10245;51.344;6.620;2023-11-21T13:39:46;46.45;;;24.73;;
20170;SDS011;10245;51.344;6.620;2023-11-21T13:42:12;43.20;;;24.45;;
20170;SDS011;10245;51.344;6.620;2023-11-21T13:44:37;43.20;;;23.83;;
20170;SDS011;10245;51.344;6.620;2023-11-21T13:47:06;42.80;;;24.25;;
20170;SDS011;10245;51.344;6.620;2023-11-21T13:49:29;42.00;;;23.25;;
20170;SDS011;10245;51.344;6.620;2023-11-21T13:51:56;41.97;;;23.60;;
20170;SDS011;10245;51.344;6.620;2023-11-21T13:54:23;48.58;;;25.95;;
20170;SDS011;10245;51.344;6.620;2023-11-21T13:56:47;43.30;;;23.30;;
20170;SDS011;10245;51.344;6.620;2023-11-21T13:59:12;44.30;;;26.13;;
20170;SDS011;10245;51.344;6.620;2023-11-21T14:01:42;41.92;;;25.23;;
20170;SDS011;10245;51.344;6.620;2023-11-21T14:04:16;42.45;;;26.13;;
20170;SDS011;10245;51.344;6.620;2023-11-21T14:06:53;42.60;;;24.38;;
20170;SDS011;10245;51.344;6.620;2023-11-21T14:09:16;38.33;;;23.33;;